Starlight, Pennsylvania
Current Conditions -  °F | °C
As of 2:15 PM on Saturday 25 Oct 2014 (Local Time) from KMSV Reporting Station
Scattered Clouds Scattered Clouds  
Wind Chill: 59°   Ceiling: Unl
Heat Index: 59°   Visibility: 10mi
Dew Point: 43°   Wind: 9mph
Humidity: 55%   Direction: 250°WSW
Pressure: 29.71"   Gusts: 17mph
Location:  41.9°N, 75.33°W
Report Text: KMSV 251815Z AUTO 25008G15KT 10SM SCT041 15/06 A2971 RMK AO1
Loading
Personal Weather Stations






























Interactive Weather Map
Tropical Storm Tracking
New forecast layout! Learn more

10-Day Weather Forecast

Advertisements
Track Severe Weather on mobile